Terminal Aerodrome Forecast
Issued by NWS

Home | Current Version | Previous Version | Text Only | Print | Product List | Glossary On
Versions: 1 2 3 4 5 6 7 8 9 10 11 12
000
FTUS44 KLIX 042331
TAFMCB
TAF
KMCB 042331Z 0500/0524 VRB03KT P6SM SKC
     FM051500 25005KT P6SM SCT035
     FM051900 23007KT P6SM VCTS SCT040CB=

USA.gov is the U.S. government's official web portal to all federal, state and local government web resources and services.